KMNE

Minden Airport

Minden, Louisiana, USA
METAR KMNE 211255Z AUTO 01006KT 10SM BKN008 OVC013 19/17 A3015 RMK AO2 LTG DSNT SW AND W T01900167
Observed Flight Rules
Feb-21 @ 12:55 UTC (19 minutes ago) Instrument Flight Rules
Wind Visibility Clouds
10° at 6 knots 10 miles
  • Broken at 800' AGL
  • Overcast at 1,300' AGL
Temperatures Readings
Current 19°C / 66°F
Dewpoint 17°C / 63°F
Humidity 88%
Altimeter 30.15" Hg
Pressure 1021 hPa
Elevation 85
METAR KMNE 211255Z AUTO 01006KT 10SM BKN008 OVC013 19/17 A3015 RMK AO2 LTG DSNT SW AND W T01900167
Observed Flight Rules
Feb-21 @ 12:55 UTC
(19 minutes ago)
IFR
Wind Visibility
10° at 6 knots 10 miles
Clouds
  • Broken at 800' AGL
  • Overcast at 1,300' AGL
Temperature Dewpoint
19°C / 66°F 17°C / 63°F
Humidity Altimeter Pressure
88% 30.15" Hg 1021 hPa